sensor_id;sensor_type;location;lat;lon;timestamp;P1;durP1;ratioP1;P2;durP2;ratioP2
26191;SDS011;13935;55.672;37.764;2023-08-30T05:40:32;8.77;;;6.57;;
26191;SDS011;13935;55.672;37.764;2023-08-30T05:41:34;10.65;;;7.35;;
26191;SDS011;13935;55.672;37.764;2023-08-30T05:42:36;8.93;;;6.93;;
26191;SDS011;13935;55.672;37.764;2023-08-30T05:43:38;10.35;;;6.78;;
26191;SDS011;13935;55.672;37.764;2023-08-30T05:48:25;10.88;;;7.20;;
26191;SDS011;13935;55.672;37.764;2023-08-30T05:49:27;11.80;;;7.30;;
26191;SDS011;13935;55.672;37.764;2023-08-30T05:56:17;12.15;;;6.50;;
26191;SDS011;13935;55.672;37.764;2023-08-30T05:57:20;10.57;;;7.13;;
26191;SDS011;13935;55.672;37.764;2023-08-30T05:58:23;10.88;;;7.57;;
26191;SDS011;13935;55.672;37.764;2023-08-30T05:59:25;12.98;;;7.78;;
26191;SDS011;13935;55.672;37.764;2023-08-30T06:00:28;10.73;;;7.45;;
26191;SDS011;13935;55.672;37.764;2023-08-30T06:01:30;13.20;;;8.10;;
26191;SDS011;13935;55.672;37.764;2023-08-30T06:02:32;10.63;;;8.10;;
26191;SDS011;13935;55.672;37.764;2023-08-30T06:03:34;14.75;;;8.38;;
26191;SDS011;13935;55.672;37.764;2023-08-30T06:04:38;12.55;;;8.18;;
26191;SDS011;13935;55.672;37.764;2023-08-30T06:05:41;13.35;;;7.72;;
26191;SDS011;13935;55.672;37.764;2023-08-30T06:06:44;13.35;;;7.85;;
26191;SDS011;13935;55.672;37.764;2023-08-30T06:07:50;12.45;;;8.15;;
26191;SDS011;13935;55.672;37.764;2023-08-30T06:08:52;13.95;;;8.27;;
26191;SDS011;13935;55.672;37.764;2023-08-30T06:09:58;10.02;;;7.75;;
26191;SDS011;13935;55.672;37.764;2023-08-30T06:11:02;10.50;;;7.60;;
26191;SDS011;13935;55.672;37.764;2023-08-30T06:12:05;12.63;;;7.70;;
26191;SDS011;13935;55.672;37.764;2023-08-30T06:13:07;12.25;;;8.70;;
26191;SDS011;13935;55.672;37.764;2023-08-30T07:01:09;11.77;;;6.63;;
26191;SDS011;13935;55.672;37.764;2023-08-30T07:09:57;11.98;;;6.70;;
26191;SDS011;13935;55.672;37.764;2023-08-30T07:11:03;12.50;;;6.82;;
26191;SDS011;13935;55.672;37.764;2023-08-30T07:12:21;10.20;;;6.50;;
26191;SDS011;13935;55.672;37.764;2023-08-30T07:13:26;9.25;;;6.72;;
26191;SDS011;13935;55.672;37.764;2023-08-30T07:14:29;8.10;;;5.90;;
26191;SDS011;13935;55.672;37.764;2023-08-30T07:15:48;8.52;;;5.80;;
26191;SDS011;13935;55.672;37.764;2023-08-30T07:17:01;8.23;;;6.10;;
26191;SDS011;13935;55.672;37.764;2023-08-30T07:18:07;10.35;;;6.90;;
26191;SDS011;13935;55.672;37.764;2023-08-30T07:19:11;12.13;;;6.57;;
26191;SDS011;13935;55.672;37.764;2023-08-30T07:20:14;10.65;;;6.65;;
26191;SDS011;13935;55.672;37.764;2023-08-30T07:21:17;9.38;;;6.05;;
26191;SDS011;13935;55.672;37.764;2023-08-30T07:22:19;9.77;;;6.63;;
26191;SDS011;13935;55.672;37.764;2023-08-30T07:23:21;10.55;;;6.63;;
26191;SDS011;13935;55.672;37.764;2023-08-30T07:24:23;9.77;;;6.82;;
26191;SDS011;13935;55.672;37.764;2023-08-30T07:25:26;8.88;;;6.47;;
26191;SDS011;13935;55.672;37.764;2023-08-30T07:26:29;10.73;;;7.13;;
26191;SDS011;13935;55.672;37.764;2023-08-30T07:27:31;10.65;;;6.85;;
26191;SDS011;13935;55.672;37.764;2023-08-30T07:28:34;10.10;;;6.53;;
26191;SDS011;13935;55.672;37.764;2023-08-30T07:29:36;9.98;;;7.45;;
26191;SDS011;13935;55.672;37.764;2023-08-30T07:30:40;9.00;;;6.50;;
26191;SDS011;13935;55.672;37.764;2023-08-30T07:31:52;11.75;;;7.07;;
26191;SDS011;13935;55.672;37.764;2023-08-30T07:32:59;10.88;;;6.45;;
26191;SDS011;13935;55.672;37.764;2023-08-30T07:34:06;8.48;;;6.43;;
26191;SDS011;13935;55.672;37.764;2023-08-30T07:35:10;10.00;;;6.97;;
26191;SDS011;13935;55.672;37.764;2023-08-30T07:36:39;10.48;;;7.35;;
26191;SDS011;13935;55.672;37.764;2023-08-30T07:37:53;10.52;;;7.80;;
26191;SDS011;13935;55.672;37.764;2023-08-30T07:40:06;11.25;;;7.65;;
26191;SDS011;13935;55.672;37.764;2023-08-30T07:41:52;11.88;;;7.50;;
26191;SDS011;13935;55.672;37.764;2023-08-30T07:43:25;11.48;;;7.45;;
26191;SDS011;13935;55.672;37.764;2023-08-30T07:44:28;11.52;;;7.55;;
26191;SDS011;13935;55.672;37.764;2023-08-30T07:45:48;10.15;;;7.50;;
26191;SDS011;13935;55.672;37.764;2023-08-30T07:46:57;11.73;;;7.60;;
26191;SDS011;13935;55.672;37.764;2023-08-30T07:48:04;9.70;;;7.22;;
26191;SDS011;13935;55.672;37.764;2023-08-30T07:49:07;11.27;;;8.07;;
26191;SDS011;13935;55.672;37.764;2023-08-30T07:50:09;12.50;;;7.82;;
26191;SDS011;13935;55.672;37.764;2023-08-30T07:51:12;11.45;;;7.68;;
26191;SDS011;13935;55.672;37.764;2023-08-30T07:52:17;10.98;;;8.00;;
26191;SDS011;13935;55.672;37.764;2023-08-30T07:53:36;12.65;;;8.13;;
26191;SDS011;13935;55.672;37.764;2023-08-30T07:54:40;11.20;;;7.53;;
26191;SDS011;13935;55.672;37.764;2023-08-30T07:55:47;10.45;;;7.43;;
26191;SDS011;13935;55.672;37.764;2023-08-30T07:56:52;11.98;;;7.38;;
26191;SDS011;13935;55.672;37.764;2023-08-30T07:57:54;10.32;;;7.78;;
26191;SDS011;13935;55.672;37.764;2023-08-30T07:58:56;11.13;;;7.60;;
26191;SDS011;13935;55.672;37.764;2023-08-30T08:00:12;12.70;;;7.78;;
26191;SDS011;13935;55.672;37.764;2023-08-30T08:01:28;10.23;;;7.00;;
26191;SDS011;13935;55.672;37.764;2023-08-30T08:02:31;11.30;;;8.50;;
26191;SDS011;13935;55.672;37.764;2023-08-30T08:03:34;11.40;;;7.47;;
26191;SDS011;13935;55.672;37.764;2023-08-30T08:05:36;11.43;;;7.88;;
26191;SDS011;13935;55.672;37.764;2023-08-30T08:06:39;11.40;;;7.97;;
26191;SDS011;13935;55.672;37.764;2023-08-30T08:07:42;10.98;;;7.25;;
26191;SDS011;13935;55.672;37.764;2023-08-30T08:08:45;11.57;;;7.45;;
26191;SDS011;13935;55.672;37.764;2023-08-30T08:09:47;11.43;;;7.75;;
26191;SDS011;13935;55.672;37.764;2023-08-30T08:10:51;10.93;;;7.53;;
26191;SDS011;13935;55.672;37.764;2023-08-30T08:11:55;10.65;;;7.43;;
26191;SDS011;13935;55.672;37.764;2023-08-30T08:12:59;12.23;;;8.82;;
26191;SDS011;13935;55.672;37.764;2023-08-30T08:14:02;9.70;;;7.70;;
26191;SDS011;13935;55.672;37.764;2023-08-30T08:15:06;9.07;;;7.45;;
26191;SDS011;13935;55.672;37.764;2023-08-30T08:16:11;9.65;;;7.47;;
26191;SDS011;13935;55.672;37.764;2023-08-30T08:17:24;10.73;;;7.50;;
26191;SDS011;13935;55.672;37.764;2023-08-30T08:18:26;10.23;;;7.43;;
26191;SDS011;13935;55.672;37.764;2023-08-30T08:19:28;9.80;;;6.65;;
26191;SDS011;13935;55.672;37.764;2023-08-30T08:20:31;10.25;;;7.38;;
26191;SDS011;13935;55.672;37.764;2023-08-30T08:21:35;10.73;;;7.10;;
26191;SDS011;13935;55.672;37.764;2023-08-30T08:22:54;11.68;;;7.18;;
26191;SDS011;13935;55.672;37.764;2023-08-30T08:23:57;11.13;;;8.35;;
26191;SDS011;13935;55.672;37.764;2023-08-30T08:25:00;10.23;;;8.00;;
26191;SDS011;13935;55.672;37.764;2023-08-30T08:26:02;11.48;;;7.85;;
26191;SDS011;13935;55.672;37.764;2023-08-30T08:27:06;11.93;;;7.78;;
26191;SDS011;13935;55.672;37.764;2023-08-30T08:28:16;11.82;;;7.50;;
26191;SDS011;13935;55.672;37.764;2023-08-30T08:29:31;11.05;;;8.05;;
26191;SDS011;13935;55.672;37.764;2023-08-30T08:30:36;12.15;;;7.43;;
26191;SDS011;13935;55.672;37.764;2023-08-30T08:31:39;10.73;;;7.32;;
26191;SDS011;13935;55.672;37.764;2023-08-30T08:32:46;9.80;;;7.30;;
26191;SDS011;13935;55.672;37.764;2023-08-30T08:34:15;10.48;;;7.35;;
26191;SDS011;13935;55.672;37.764;2023-08-30T08:35:27;9.52;;;7.38;;
26191;SDS011;13935;55.672;37.764;2023-08-30T08:36:29;8.82;;;6.65;;
26191;SDS011;13935;55.672;37.764;2023-08-30T08:37:35;12.90;;;7.65;;
26191;SDS011;13935;55.672;37.764;2023-08-30T08:38:57;10.95;;;7.93;;
26191;SDS011;13935;55.672;37.764;2023-08-30T08:40:01;12.27;;;7.53;;
26191;SDS011;13935;55.672;37.764;2023-08-30T08:41:15;10.55;;;7.63;;
26191;SDS011;13935;55.672;37.764;2023-08-30T08:42:31;21.25;;;9.40;;
26191;SDS011;13935;55.672;37.764;2023-08-30T08:43:39;19.38;;;11.50;;
26191;SDS011;13935;55.672;37.764;2023-08-30T08:45:44;12.02;;;9.02;;
26191;SDS011;13935;55.672;37.764;2023-08-30T08:47:23;11.98;;;7.85;;
26191;SDS011;13935;55.672;37.764;2023-08-30T08:48:50;11.47;;;6.97;;
26191;SDS011;13935;55.672;37.764;2023-08-30T08:50:24;12.35;;;7.65;;
26191;SDS011;13935;55.672;37.764;2023-08-30T08:52:08;12.48;;;7.40;;
26191;SDS011;13935;55.672;37.764;2023-08-30T08:53:33;12.82;;;7.30;;
26191;SDS011;13935;55.672;37.764;2023-08-30T08:55:00;9.23;;;6.30;;
26191;SDS011;13935;55.672;37.764;2023-08-30T08:56:09;8.23;;;6.68;;
26191;SDS011;13935;55.672;37.764;2023-08-30T08:57:11;11.48;;;7.32;;
26191;SDS011;13935;55.672;37.764;2023-08-30T08:58:18;11.45;;;6.82;;
26191;SDS011;13935;55.672;37.764;2023-08-30T08:59:21;8.80;;;6.55;;
26191;SDS011;13935;55.672;37.764;2023-08-30T09:00:24;8.55;;;6.38;;
26191;SDS011;13935;55.672;37.764;2023-08-30T09:01:33;10.10;;;7.15;;
26191;SDS011;13935;55.672;37.764;2023-08-30T09:02:42;10.80;;;6.60;;
26191;SDS011;13935;55.672;37.764;2023-08-30T09:03:46;9.50;;;6.45;;
26191;SDS011;13935;55.672;37.764;2023-08-30T09:04:50;10.02;;;6.68;;
26191;SDS011;13935;55.672;37.764;2023-08-30T09:05:53;10.63;;;6.57;;
26191;SDS011;13935;55.672;37.764;2023-08-30T09:06:58;8.30;;;6.28;;
26191;SDS011;13935;55.672;37.764;2023-08-30T09:08:01;10.73;;;6.35;;
26191;SDS011;13935;55.672;37.764;2023-08-30T09:09:06;8.73;;;6.05;;
26191;SDS011;13935;55.672;37.764;2023-08-30T09:11:41;12.27;;;7.55;;
26191;SDS011;13935;55.672;37.764;2023-08-30T09:12:52;9.73;;;7.78;;
26191;SDS011;13935;55.672;37.764;2023-08-30T09:13:56;10.40;;;7.18;;
26191;SDS011;13935;55.672;37.764;2023-08-30T09:16:36;12.20;;;6.40;;
26191;SDS011;13935;55.672;37.764;2023-08-30T09:17:38;10.70;;;6.22;;
26191;SDS011;13935;55.672;37.764;2023-08-30T09:18:42;9.68;;;7.03;;
26191;SDS011;13935;55.672;37.764;2023-08-30T09:19:53;11.27;;;6.80;;
26191;SDS011;13935;55.672;37.764;2023-08-30T09:22:42;11.05;;;6.32;;
26191;SDS011;13935;55.672;37.764;2023-08-30T09:23:46;10.95;;;6.72;;
26191;SDS011;13935;55.672;37.764;2023-08-30T09:24:58;10.23;;;6.15;;
26191;SDS011;13935;55.672;37.764;2023-08-30T09:26:01;8.20;;;6.15;;
26191;SDS011;13935;55.672;37.764;2023-08-30T09:27:04;7.88;;;5.97;;
26191;SDS011;13935;55.672;37.764;2023-08-30T09:28:10;8.65;;;6.20;;
26191;SDS011;13935;55.672;37.764;2023-08-30T09:29:14;7.95;;;6.22;;
26191;SDS011;13935;55.672;37.764;2023-08-30T09:30:22;10.05;;;6.85;;
26191;SDS011;13935;55.672;37.764;2023-08-30T09:31:24;8.68;;;7.00;;
26191;SDS011;13935;55.672;37.764;2023-08-30T09:32:29;8.57;;;7.05;;
26191;SDS011;13935;55.672;37.764;2023-08-30T09:33:32;9.65;;;6.65;;
26191;SDS011;13935;55.672;37.764;2023-08-30T09:34:35;10.45;;;6.68;;
26191;SDS011;13935;55.672;37.764;2023-08-30T09:35:51;10.65;;;6.45;;
26191;SDS011;13935;55.672;37.764;2023-08-30T09:36:53;7.25;;;5.90;;
26191;SDS011;13935;55.672;37.764;2023-08-30T09:37:57;9.55;;;6.03;;
26191;SDS011;13935;55.672;37.764;2023-08-30T09:39:12;8.45;;;6.03;;
26191;SDS011;13935;55.672;37.764;2023-08-30T09:40:22;8.38;;;6.10;;
26191;SDS011;13935;55.672;37.764;2023-08-30T09:41:28;10.05;;;6.20;;
26191;SDS011;13935;55.672;37.764;2023-08-30T09:42:34;8.75;;;6.43;;
26191;SDS011;13935;55.672;37.764;2023-08-30T09:44:22;8.93;;;6.05;;
26191;SDS011;13935;55.672;37.764;2023-08-30T09:45:44;11.18;;;5.63;;
26191;SDS011;13935;55.672;37.764;2023-08-30T09:46:53;8.70;;;5.80;;
26191;SDS011;13935;55.672;37.764;2023-08-30T09:48:00;9.73;;;6.10;;
26191;SDS011;13935;55.672;37.764;2023-08-30T09:49:03;7.32;;;5.57;;
26191;SDS011;13935;55.672;37.764;2023-08-30T09:50:06;11.25;;;6.63;;
26191;SDS011;13935;55.672;37.764;2023-08-30T09:51:10;11.38;;;6.82;;
26191;SDS011;13935;55.672;37.764;2023-08-30T09:52:19;7.65;;;6.13;;
26191;SDS011;13935;55.672;37.764;2023-08-30T09:53:40;10.52;;;5.93;;
26191;SDS011;13935;55.672;37.764;2023-08-30T09:55:05;8.27;;;6.07;;
26191;SDS011;13935;55.672;37.764;2023-08-30T09:56:08;8.20;;;6.43;;
26191;SDS011;13935;55.672;37.764;2023-08-30T09:57:14;10.10;;;6.35;;
26191;SDS011;13935;55.672;37.764;2023-08-30T09:58:20;7.70;;;6.28;;
26191;SDS011;13935;55.672;37.764;2023-08-30T09:59:23;8.90;;;6.22;;
26191;SDS011;13935;55.672;37.764;2023-08-30T10:00:29;9.05;;;6.22;;
26191;SDS011;13935;55.672;37.764;2023-08-30T10:01:36;7.97;;;5.97;;
26191;SDS011;13935;55.672;37.764;2023-08-30T10:02:58;10.00;;;6.43;;
26191;SDS011;13935;55.672;37.764;2023-08-30T10:04:21;7.72;;;6.68;;
26191;SDS011;13935;55.672;37.764;2023-08-30T10:05:26;8.18;;;6.75;;
26191;SDS011;13935;55.672;37.764;2023-08-30T10:06:32;7.97;;;6.50;;
26191;SDS011;13935;55.672;37.764;2023-08-30T10:07:51;11.75;;;6.55;;
26191;SDS011;13935;55.672;37.764;2023-08-30T10:08:56;10.98;;;7.00;;
26191;SDS011;13935;55.672;37.764;2023-08-30T10:10:03;10.15;;;6.50;;
26191;SDS011;13935;55.672;37.764;2023-08-30T10:11:20;9.45;;;6.53;;
26191;SDS011;13935;55.672;37.764;2023-08-30T10:12:59;8.55;;;6.47;;
26191;SDS011;13935;55.672;37.764;2023-08-30T10:14:15;10.50;;;7.07;;
26191;SDS011;13935;55.672;37.764;2023-08-30T10:16:00;14.88;;;8.68;;
26191;SDS011;13935;55.672;37.764;2023-08-30T10:17:23;10.70;;;6.55;;
26191;SDS011;13935;55.672;37.764;2023-08-30T10:18:52;9.63;;;7.35;;
26191;SDS011;13935;55.672;37.764;2023-08-30T10:20:07;11.25;;;7.45;;
26191;SDS011;13935;55.672;37.764;2023-08-30T10:21:11;11.60;;;9.35;;
26191;SDS011;13935;55.672;37.764;2023-08-30T10:22:15;9.63;;;7.07;;
26191;SDS011;13935;55.672;37.764;2023-08-30T10:23:19;12.60;;;7.40;;
26191;SDS011;13935;55.672;37.764;2023-08-30T10:25:02;11.65;;;8.15;;
26191;SDS011;13935;55.672;37.764;2023-08-30T10:26:28;9.70;;;7.80;;
26191;SDS011;13935;55.672;37.764;2023-08-30T10:27:37;10.50;;;7.53;;
26191;SDS011;13935;55.672;37.764;2023-08-30T10:28:48;10.35;;;7.78;;
26191;SDS011;13935;55.672;37.764;2023-08-30T10:30:12;9.65;;;7.32;;
26191;SDS011;13935;55.672;37.764;2023-08-30T10:33:52;11.75;;;6.70;;
26191;SDS011;13935;55.672;37.764;2023-08-30T10:35:04;9.98;;;7.45;;
26191;SDS011;13935;55.672;37.764;2023-08-30T10:36:25;11.45;;;7.03;;
26191;SDS011;13935;55.672;37.764;2023-08-30T10:37:29;9.90;;;6.85;;
26191;SDS011;13935;55.672;37.764;2023-08-30T10:38:48;12.20;;;8.50;;
26191;SDS011;13935;55.672;37.764;2023-08-30T10:39:51;10.65;;;7.07;;
26191;SDS011;13935;55.672;37.764;2023-08-30T10:40:54;10.00;;;7.18;;
26191;SDS011;13935;55.672;37.764;2023-08-30T10:41:57;9.82;;;7.03;;
26191;SDS011;13935;55.672;37.764;2023-08-30T10:43:04;8.70;;;7.10;;
26191;SDS011;13935;55.672;37.764;2023-08-30T10:44:13;11.68;;;6.95;;
26191;SDS011;13935;55.672;37.764;2023-08-30T10:45:44;9.30;;;7.00;;
26191;SDS011;13935;55.672;37.764;2023-08-30T10:47:23;11.20;;;6.50;;
26191;SDS011;13935;55.672;37.764;2023-08-30T10:48:36;10.88;;;7.32;;
26191;SDS011;13935;55.672;37.764;2023-08-30T10:49:46;10.15;;;6.60;;
26191;SDS011;13935;55.672;37.764;2023-08-30T10:50:57;9.13;;;6.80;;
26191;SDS011;13935;55.672;37.764;2023-08-30T10:52:00;10.52;;;7.07;;
26191;SDS011;13935;55.672;37.764;2023-08-30T10:53:12;7.82;;;6.70;;
26191;SDS011;13935;55.672;37.764;2023-08-30T10:54:16;9.27;;;6.90;;
26191;SDS011;13935;55.672;37.764;2023-08-30T10:55:21;10.25;;;7.13;;
26191;SDS011;13935;55.672;37.764;2023-08-30T10:56:29;11.27;;;7.57;;
26191;SDS011;13935;55.672;37.764;2023-08-30T10:58:00;10.88;;;7.38;;
26191;SDS011;13935;55.672;37.764;2023-08-30T11:00:38;10.52;;;7.47;;
26191;SDS011;13935;55.672;37.764;2023-08-30T11:01:51;10.27;;;7.10;;
26191;SDS011;13935;55.672;37.764;2023-08-30T11:02:58;11.15;;;8.63;;
26191;SDS011;13935;55.672;37.764;2023-08-30T11:04:00;9.10;;;6.78;;
26191;SDS011;13935;55.672;37.764;2023-08-30T11:05:16;9.05;;;6.40;;
26191;SDS011;13935;55.672;37.764;2023-08-30T11:06:24;8.77;;;6.70;;
26191;SDS011;13935;55.672;37.764;2023-08-30T11:07:26;8.02;;;6.03;;
26191;SDS011;13935;55.672;37.764;2023-08-30T11:08:30;9.50;;;6.53;;
26191;SDS011;13935;55.672;37.764;2023-08-30T11:09:33;10.57;;;6.93;;
26191;SDS011;13935;55.672;37.764;2023-08-30T11:10:36;8.07;;;6.50;;
26191;SDS011;13935;55.672;37.764;2023-08-30T11:11:44;8.98;;;6.65;;
26191;SDS011;13935;55.672;37.764;2023-08-30T11:12:50;7.82;;;6.55;;
26191;SDS011;13935;55.672;37.764;2023-08-30T11:13:54;8.27;;;6.20;;
26191;SDS011;13935;55.672;37.764;2023-08-30T11:14:56;8.32;;;6.32;;
26191;SDS011;13935;55.672;37.764;2023-08-30T11:16:21;10.40;;;7.13;;
26191;SDS011;13935;55.672;37.764;2023-08-30T11:17:43;6.80;;;5.82;;
26191;SDS011;13935;55.672;37.764;2023-08-30T11:19:07;9.38;;;7.32;;
26191;SDS011;13935;55.672;37.764;2023-08-30T11:20:38;7.68;;;6.07;;
26191;SDS011;13935;55.672;37.764;2023-08-30T11:21:44;9.15;;;5.95;;
26191;SDS011;13935;55.672;37.764;2023-08-30T11:22:48;7.05;;;5.38;;
26191;SDS011;13935;55.672;37.764;2023-08-30T11:23:54;12.90;;;6.40;;
26191;SDS011;13935;55.672;37.764;2023-08-30T11:24:56;6.72;;;5.22;;
26191;SDS011;13935;55.672;37.764;2023-08-30T11:25:59;6.32;;;4.85;;
26191;SDS011;13935;55.672;37.764;2023-08-30T11:27:02;12.40;;;6.47;;
26191;SDS011;13935;55.672;37.764;2023-08-30T11:28:05;21.17;;;7.60;;
26191;SDS011;13935;55.672;37.764;2023-08-30T11:29:08;10.45;;;6.13;;
26191;SDS011;13935;55.672;37.764;2023-08-30T11:30:11;8.82;;;5.55;;
26191;SDS011;13935;55.672;37.764;2023-08-30T11:32:28;7.28;;;4.90;;
26191;SDS011;13935;55.672;37.764;2023-08-30T11:33:38;6.70;;;4.28;;
26191;SDS011;13935;55.672;37.764;2023-08-30T11:34:40;5.80;;;4.38;;
26191;SDS011;13935;55.672;37.764;2023-08-30T11:35:45;8.00;;;4.45;;
26191;SDS011;13935;55.672;37.764;2023-08-30T11:37:08;7.85;;;4.78;;
26191;SDS011;13935;55.672;37.764;2023-08-30T11:38:13;12.93;;;5.60;;
26191;SDS011;13935;55.672;37.764;2023-08-30T11:39:18;9.68;;;4.57;;
26191;SDS011;13935;55.672;37.764;2023-08-30T11:40:26;5.90;;;4.55;;
26191;SDS011;13935;55.672;37.764;2023-08-30T11:41:32;9.35;;;5.22;;
26191;SDS011;13935;55.672;37.764;2023-08-30T11:42:42;7.25;;;4.63;;
26191;SDS011;13935;55.672;37.764;2023-08-30T11:43:59;7.57;;;4.40;;
26191;SDS011;13935;55.672;37.764;2023-08-30T11:45:03;8.52;;;4.97;;
26191;SDS011;13935;55.672;37.764;2023-08-30T11:46:08;8.07;;;5.05;;
26191;SDS011;13935;55.672;37.764;2023-08-30T11:47:23;7.78;;;4.53;;
26191;SDS011;13935;55.672;37.764;2023-08-30T11:48:28;7.65;;;4.78;;
26191;SDS011;13935;55.672;37.764;2023-08-30T11:49:40;7.35;;;4.70;;
26191;SDS011;13935;55.672;37.764;2023-08-30T11:50:48;8.90;;;6.28;;
26191;SDS011;13935;55.672;37.764;2023-08-30T11:51:55;13.85;;;9.35;;
26191;SDS011;13935;55.672;37.764;2023-08-30T11:52:59;5.70;;;4.55;;
26191;SDS011;13935;55.672;37.764;2023-08-30T11:54:02;8.32;;;5.55;;
26191;SDS011;13935;55.672;37.764;2023-08-30T11:55:21;10.80;;;5.85;;
26191;SDS011;13935;55.672;37.764;2023-08-30T11:57:58;7.38;;;5.05;;
26191;SDS011;13935;55.672;37.764;2023-08-30T11:59:05;7.00;;;5.50;;
26191;SDS011;13935;55.672;37.764;2023-08-30T12:00:10;7.13;;;4.78;;
26191;SDS011;13935;55.672;37.764;2023-08-30T12:02:56;10.73;;;8.55;;
26191;SDS011;13935;55.672;37.764;2023-08-30T12:04:08;8.82;;;5.95;;
26191;SDS011;13935;55.672;37.764;2023-08-30T12:05:20;8.00;;;5.82;;
26191;SDS011;13935;55.672;37.764;2023-08-30T12:06:24;8.18;;;5.80;;
26191;SDS011;13935;55.672;37.764;2023-08-30T12:07:31;9.25;;;6.82;;
26191;SDS011;13935;55.672;37.764;2023-08-30T12:08:37;7.53;;;5.75;;
26191;SDS011;13935;55.672;37.764;2023-08-30T12:09:39;8.35;;;5.45;;
26191;SDS011;13935;55.672;37.764;2023-08-30T12:10:41;9.15;;;5.97;;
26191;SDS011;13935;55.672;37.764;2023-08-30T12:11:45;7.00;;;5.35;;
26191;SDS011;13935;55.672;37.764;2023-08-30T12:12:56;8.70;;;5.78;;
26191;SDS011;13935;55.672;37.764;2023-08-30T12:14:03;7.40;;;5.43;;
26191;SDS011;13935;55.672;37.764;2023-08-30T12:15:09;9.98;;;5.63;;
26191;SDS011;13935;55.672;37.764;2023-08-30T12:16:19;10.05;;;5.60;;
26191;SDS011;13935;55.672;37.764;2023-08-30T12:17:25;7.57;;;5.22;;
26191;SDS011;13935;55.672;37.764;2023-08-30T12:18:29;8.52;;;5.30;;
26191;SDS011;13935;55.672;37.764;2023-08-30T12:19:35;8.90;;;5.20;;
26191;SDS011;13935;55.672;37.764;2023-08-30T12:20:38;10.05;;;5.70;;
26191;SDS011;13935;55.672;37.764;2023-08-30T12:21:43;9.65;;;5.80;;
26191;SDS011;13935;55.672;37.764;2023-08-30T12:22:49;11.55;;;6.20;;
26191;SDS011;13935;55.672;37.764;2023-08-30T12:23:59;10.10;;;6.60;;
26191;SDS011;13935;55.672;37.764;2023-08-30T12:25:26;9.95;;;6.82;;
26191;SDS011;13935;55.672;37.764;2023-08-30T12:26:31;9.68;;;5.32;;
26191;SDS011;13935;55.672;37.764;2023-08-30T12:27:39;7.97;;;5.00;;
26191;SDS011;13935;55.672;37.764;2023-08-30T12:28:44;8.15;;;5.10;;
26191;SDS011;13935;55.672;37.764;2023-08-30T12:29:47;7.10;;;4.70;;
26191;SDS011;13935;55.672;37.764;2023-08-30T12:30:49;7.55;;;5.30;;
26191;SDS011;13935;55.672;37.764;2023-08-30T12:31:56;8.45;;;5.60;;
26191;SDS011;13935;55.672;37.764;2023-08-30T12:33:01;7.45;;;4.65;;
26191;SDS011;13935;55.672;37.764;2023-08-30T12:34:10;9.00;;;4.38;;
26191;SDS011;13935;55.672;37.764;2023-08-30T12:35:14;10.60;;;5.28;;
26191;SDS011;13935;55.672;37.764;2023-08-30T12:36:18;7.38;;;4.65;;
26191;SDS011;13935;55.672;37.764;2023-08-30T12:37:28;11.23;;;5.47;;
26191;SDS011;13935;55.672;37.764;2023-08-30T12:38:33;8.73;;;5.55;;
26191;SDS011;13935;55.672;37.764;2023-08-30T12:39:36;9.43;;;5.50;;
26191;SDS011;13935;55.672;37.764;2023-08-30T12:40:42;9.57;;;5.57;;
26191;SDS011;13935;55.672;37.764;2023-08-30T12:41:44;7.80;;;5.10;;
26191;SDS011;13935;55.672;37.764;2023-08-30T12:42:46;9.40;;;5.30;;
26191;SDS011;13935;55.672;37.764;2023-08-30T12:43:50;8.80;;;5.15;;
26191;SDS011;13935;55.672;37.764;2023-08-30T12:44:53;7.55;;;5.25;;
26191;SDS011;13935;55.672;37.764;2023-08-30T12:48:15;8.57;;;5.53;;
26191;SDS011;13935;55.672;37.764;2023-08-30T12:49:19;9.00;;;5.30;;
26191;SDS011;13935;55.672;37.764;2023-08-30T12:50:23;6.97;;;4.90;;
26191;SDS011;13935;55.672;37.764;2023-08-30T12:51:26;8.02;;;4.93;;
26191;SDS011;13935;55.672;37.764;2023-08-30T12:52:29;9.57;;;5.57;;
26191;SDS011;13935;55.672;37.764;2023-08-30T12:53:35;9.68;;;5.70;;
26191;SDS011;13935;55.672;37.764;2023-08-30T12:54:39;8.90;;;5.40;;
26191;SDS011;13935;55.672;37.764;2023-08-30T12:55:44;11.13;;;5.70;;
26191;SDS011;13935;55.672;37.764;2023-08-30T12:56:47;8.40;;;5.13;;
26191;SDS011;13935;55.672;37.764;2023-08-30T12:57:51;8.60;;;5.32;;
26191;SDS011;13935;55.672;37.764;2023-08-30T12:58:55;11.40;;;7.22;;
26191;SDS011;13935;55.672;37.764;2023-08-30T12:59:59;8.93;;;5.55;;
26191;SDS011;13935;55.672;37.764;2023-08-30T13:01:02;11.77;;;4.90;;
26191;SDS011;13935;55.672;37.764;2023-08-30T13:02:08;8.98;;;5.05;;
26191;SDS011;13935;55.672;37.764;2023-08-30T13:03:11;9.73;;;5.70;;
26191;SDS011;13935;55.672;37.764;2023-08-30T13:04:13;8.50;;;5.32;;
26191;SDS011;13935;55.672;37.764;2023-08-30T13:05:16;7.50;;;5.40;;
26191;SDS011;13935;55.672;37.764;2023-08-30T13:06:20;9.32;;;5.40;;
26191;SDS011;13935;55.672;37.764;2023-08-30T13:07:23;8.80;;;5.28;;
26191;SDS011;13935;55.672;37.764;2023-08-30T13:08:26;9.88;;;5.03;;
26191;SDS011;13935;55.672;37.764;2023-08-30T13:09:29;10.48;;;4.90;;
26191;SDS011;13935;55.672;37.764;2023-08-30T13:10:37;7.60;;;5.00;;
26191;SDS011;13935;55.672;37.764;2023-08-30T13:11:40;8.35;;;4.97;;
26191;SDS011;13935;55.672;37.764;2023-08-30T13:12:45;8.65;;;5.00;;
26191;SDS011;13935;55.672;37.764;2023-08-30T13:13:49;10.50;;;5.18;;
26191;SDS011;13935;55.672;37.764;2023-08-30T13:14:51;10.55;;;5.20;;
26191;SDS011;13935;55.672;37.764;2023-08-30T13:16:08;7.63;;;5.43;;
26191;SDS011;13935;55.672;37.764;2023-08-30T13:17:11;7.47;;;5.40;;
26191;SDS011;13935;55.672;37.764;2023-08-30T13:18:14;7.35;;;5.13;;
26191;SDS011;13935;55.672;37.764;2023-08-30T13:19:20;9.55;;;4.80;;
26191;SDS011;13935;55.672;37.764;2023-08-30T13:20:23;7.63;;;5.85;;
26191;SDS011;13935;55.672;37.764;2023-08-30T13:21:27;8.77;;;5.13;;
26191;SDS011;13935;55.672;37.764;2023-08-30T13:22:42;8.20;;;5.25;;
26191;SDS011;13935;55.672;37.764;2023-08-30T13:23:44;7.63;;;5.20;;
26191;SDS011;13935;55.672;37.764;2023-08-30T13:24:51;9.02;;;5.63;;
26191;SDS011;13935;55.672;37.764;2023-08-30T13:25:54;10.13;;;5.70;;
26191;SDS011;13935;55.672;37.764;2023-08-30T13:27:21;9.35;;;5.57;;
26191;SDS011;13935;55.672;37.764;2023-08-30T13:28:47;9.05;;;5.88;;
26191;SDS011;13935;55.672;37.764;2023-08-30T13:29:59;12.55;;;6.32;;
26191;SDS011;13935;55.672;37.764;2023-08-30T13:31:06;9.30;;;5.30;;
26191;SDS011;13935;55.672;37.764;2023-08-30T13:32:45;7.75;;;5.00;;
26191;SDS011;13935;55.672;37.764;2023-08-30T13:33:47;7.55;;;5.38;;
26191;SDS011;13935;55.672;37.764;2023-08-30T13:34:50;9.27;;;5.80;;
26191;SDS011;13935;55.672;37.764;2023-08-30T13:35:57;9.57;;;5.47;;
26191;SDS011;13935;55.672;37.764;2023-08-30T13:36:59;7.88;;;5.35;;
26191;SDS011;13935;55.672;37.764;2023-08-30T13:38:02;8.10;;;6.00;;
26191;SDS011;13935;55.672;37.764;2023-08-30T13:39:04;7.85;;;5.45;;
26191;SDS011;13935;55.672;37.764;2023-08-30T13:40:07;7.50;;;5.18;;
26191;SDS011;13935;55.672;37.764;2023-08-30T13:41:27;11.90;;;5.47;;
26191;SDS011;13935;55.672;37.764;2023-08-30T13:42:33;6.80;;;5.28;;
26191;SDS011;13935;55.672;37.764;2023-08-30T13:44:07;8.73;;;5.30;;
26191;SDS011;13935;55.672;37.764;2023-08-30T13:45:58;7.45;;;5.35;;
26191;SDS011;13935;55.672;37.764;2023-08-30T13:47:05;10.23;;;5.72;;